East Quogue, NY

9:58 AM EDT on April 29, 2017 (GMT -0400)
Phillips Creek | | Change Station

Elev 20 ft 40.84 °N, 72.59 °W | Updated 7 seconds ago

Overcast
Overcast
61.9 °F
Feels Like 61.9 °F
N
7.0
Wind Variable Wind from SW
Gusts 11.0 mph

Today
High -- | Low -- °F
--% Chance of Precip.
Yesterday
High -- | Low -- °F
Precip. -- in
Pressure 30.04 in
Visibility 10.0 miles
Clouds Overcast 600 ft
Dew Point 60 °F
Humidity 95%
Rainfall 0.04 in
Snow Depth Not available.
5:51 AM 7:44 PM
Waxing Crescent, 14% visible
METAR KFOK 291353Z 23012G20KT 10SM OVC006 18/16 A3004 RMK AO2 SLP171 T01780156
Pressure 30.04 in
Visibility 10.0 miles
Clouds Overcast 600 ft
Dew Point 60 °F
Humidity 95%
Rainfall 0.04 in
Snow Depth Not available.
5:51 AM 7:44 PM
Waxing Crescent, 14% visible
METAR KFOK 291353Z 23012G20KT 10SM OVC006 18/16 A3004 RMK AO2 SLP171 T01780156

Get Severe Weather Alerts

Thanks for signing up!

Be on the lookout for a verification email in your inbox.

You'll start receiving the daily forecast at 8 AM.

×

10-Day Weather Forecast

Almanac

Astronomy

Apr. 29, 2017 Rise Set
Actual Time
Civil Twilight
Nautical Twilight
Astronomical Twilight
Moon
Length of Visible Light
Length of Day
Tomorrow will be .
, % of the Moon is Illuminated

Today's Extremes

State Highs State Lows

Community

WunderPhotos

WunderBlog® & News

Nearby

Air Quality

  Air Quality AQ Index Pollutant
Not available.

Snow Depth

Station Depth Elevation

Earthquake Activity

City Distance Mag. Time & Date
Minimum magnitude displayed is 2.5.

Coastal Water Temperatures

Place Temperature

Stations

Nearby Weather Stations

Station Location Temp. Windchill Dew Point Humidity Wind Precip. Elev Updated Type
                   

Watches & Warnings

There are currently no watches in effect.